Wetterdaten März 2003

Datum Tiefsttemp. Hchsttemp. Luftdruck Regen Wind
01.03.2003 4,1 C 11,8 C 1019 hpa 6,7 mm 12,2 km/h
02.03.2003 4,0 C 9,5 C 1013 hpa 4,6 mm 14,0 km/h
03.03.2003 1,3 C 6,3 C 1023 hpa 9,7 mm 7,0 km/h
04.03.2003 -1,4 C 10,4 C 1022 hpa 0,0 mm 14,0 km/h
05.03.2003 3,9 C 14,1 C 1018 hpa 0,8 mm 15,5 km/h
06.03.2003 3,1 C 7,8 C 1017 hpa 6,9 mm 16,9 km/h
07.03.2003 - 0,1 C 10,0 C 1021 hpa 0,3 mm 14,8 km/h
08.03.2003 2,8 C 8,5 C 1022 hpa 0,8 mm 15,2 km/h
09.03.2003 4,1 C 14,3 C 1023 hpa 0,3 mm 15,3 km/h
10.03.2003 5,2 C 15,3 C 1026 hpa 0,0 mm 10,1 km/h
11.03.2003 7,5 C 12,7 C 1019 hpa 9,7 mm 17,6 km/h
12.03.2003 4,6 C 8,2 C 1027 hpa 3,5 mm 13,4 km/h
13.03.2003 0,2 C 7,8 C 1035 hpa 0,0 mm 16,2 km/h
14.03.2003 - 3,8 C 7,8 C 1034 hpa 0,0 mm 12,1 km/h
15.03.2003 - 2,9 C 7,6 C 1040 hpa 0,0 mm 17,3 km/h
16.03.2003 - 1,6 C 11,5 C 1042 hpa 0,0 mm 10,0 km/h
17.03.2003 1,7 C 14,1 C 1036 hpa 0,0 mm 13,3 km/h
18.03.2003 - 2,4 C 9,4 C 1033 hpa 0,0 mm 8,1 km/h
19.03.2003 - 0,4 C 13,2 C 1030 hpa 0,0 mm 12,7 km/h
20.03.2003 - 1,6 C 9,8 C 1028 hpa 0,0 mm 9,4 km/h
21.03.2003 - 2,6 C 8,7 C 1026 hpa 0,0 mm 11,3 km/h
22.03.2003 - 2,4 C 10,5 C 1027 hpa 0,0 mm 10,8 km/h
23.03.2003 0,6 C 16,4 C 1028 hpa 0,0 mm 10,1 km/h
24.03.2003 3,0 C 20,6 C 1028 hpa 0,0 mm 15,5 km/h
25.03.2003 10,1 C 15,8 C 1025 hpa 0,0 mm 12,3 km/h
26.03.2003 6,5 C 17,1 C 1021 hpa 0,0 mm 12,6 km/h
27.03.2003 6,0 C 20,0 C 1019 hpa 0,0 mm 8,6 km/h
28.03.2003 6,8 C 20,3 C 1016 hpa 0,0 mm 8,6 km/h
29.03.2003 10,4 C 20,1 C 1016 hpa 0,6 mm 7,0 km/h
30.03.2003 9,5 C 14,9 C 1019 hpa 1,4 mm 13,4 km/h
31.03.2003 1,3 C 11,2 C 1025 hpa 0,0 mm 10,1 km/h



Kostenlose Homepage von Beepworld
 
Verantwortlich für den Inhalt dieser Seite ist ausschließlich der
Autor dieser Homepage, kontaktierbar über dieses Formular!